Time;durP1;ratioP1;P1;durP2;ratioP2;P2;SDS_P1;SDS_P2;PMS_P1;PMS_P2;Temp;Humidity;BMP_temperature;BMP_pressure;BME280_temperature;BME280_humidity;BME280_pressure;Samples;Min_cycle;Max_cycle;Signal;HPM_P1;HPM_P2
2024/02/24 00:01:59;;;;;;;4.13;2.20;;;;;4.30;98809.00;;;;9986013;29;20269;-81
2024/02/24 00:07:01;;;;;;;3.63;2.00;;;;;4.30;98810.00;;;;9979070;29;20222;-82
2024/02/24 00:12:02;;;;;;;2.47;1.63;;;;;4.30;98807.00;;;;9991841;29;20255;-83
2024/02/24 00:17:04;;;;;;;2.37;1.37;;;;;4.40;98815.00;;;;9961132;29;20277;-82
2024/02/24 00:22:05;;;;;;;2.73;2.03;;;;;4.40;98810.00;;;;9983412;29;20366;-82
2024/02/24 00:27:06;;;;;;;4.67;1.90;;;;;4.40;98815.00;;;;9940000;29;20756;-76
2024/02/24 00:32:07;;;;;;;4.33;2.10;;;;;4.30;98811.00;;;;9954359;29;20268;-77
2024/02/24 00:37:08;;;;;;;4.07;1.70;;;;;4.30;98818.00;;;;9993563;29;20236;-75
2024/02/24 00:42:09;;;;;;;2.63;1.53;;;;;4.30;98821.00;;;;9972271;29;20233;-77
2024/02/24 00:47:10;;;;;;;2.57;1.50;;;;;4.30;98817.00;;;;9955627;29;20225;-77
2024/02/24 00:52:12;;;;;;;2.57;1.57;;;;;4.20;98820.00;;;;9991700;29;20236;-77
2024/02/24 00:57:13;;;;;;;2.20;1.30;;;;;4.20;98816.00;;;;9958941;29;20233;-77
2024/02/24 01:02:14;;;;;;;3.57;1.50;;;;;4.20;98826.00;;;;9997393;29;20258;-77
2024/02/24 01:07:15;;;;;;;2.10;1.40;;;;;4.10;98816.00;;;;9984330;29;20230;-78
2024/02/24 01:12:16;;;;;;;2.43;1.30;;;;;4.10;98824.00;;;;9996255;29;20229;-76
2024/02/24 01:17:18;;;;;;;3.03;1.63;;;;;4.10;98824.00;;;;9983707;29;20232;-79
2024/02/24 01:22:19;;;;;;;3.17;1.57;;;;;4.10;98816.00;;;;9978256;29;20842;-76
2024/02/24 01:27:21;;;;;;;4.07;1.87;;;;;4.20;98819.00;;;;9988430;29;20248;-76
2024/02/24 01:32:22;;;;;;;3.73;1.70;;;;;4.20;98825.00;;;;9987943;29;20234;-77
2024/02/24 01:37:23;;;;;;;2.13;1.83;;;;;4.30;98829.00;;;;9981833;29;20237;-79
2024/02/24 01:42:25;;;;;;;4.93;2.00;;;;;4.20;98835.00;;;;9959249;29;20313;-79
2024/02/24 01:47:26;;;;;;;2.77;1.47;;;;;4.10;98826.00;;;;9964963;29;20257;-79
2024/02/24 01:52:29;;;;;;;3.03;2.30;;;;;4.10;98840.00;;;;9985691;29;20228;-78
2024/02/24 01:57:35;;;;;;;4.47;1.83;;;;;4.10;98842.00;;;;9968642;29;20309;-79
2024/02/24 02:02:38;;;;;;;2.37;1.57;;;;;4.20;98846.00;;;;9964915;29;20309;-77
2024/02/24 02:07:39;;;;;;;2.53;2.20;;;;;4.30;98841.00;;;;9988364;29;20679;-77
2024/02/24 02:12:41;;;;;;;3.63;2.30;;;;;4.30;98844.00;;;;9953062;29;20662;-77
2024/02/24 02:17:42;;;;;;;3.10;2.17;;;;;4.20;98846.00;;;;9997897;29;20229;-76
2024/02/24 02:22:43;;;;;;;4.57;2.43;;;;;4.20;98851.00;;;;9955720;29;20229;-78
2024/02/24 02:27:44;;;;;;;3.07;2.00;;;;;4.10;98857.00;;;;9984212;29;20292;-77
2024/02/24 02:32:45;;;;;;;1.80;1.60;;;;;4.20;98865.00;;;;9998793;29;20661;-77
2024/02/24 02:37:47;;;;;;;2.20;2.00;;;;;4.10;98865.00;;;;9970818;29;20243;-77
2024/02/24 02:42:48;;;;;;;4.97;2.13;;;;;4.10;98869.00;;;;9962926;29;20241;-76
2024/02/24 02:47:49;;;;;;;3.40;2.30;;;;;4.20;98859.00;;;;9979888;29;20289;-76
2024/02/24 02:52:51;;;;;;;3.33;2.43;;;;;4.30;98857.00;;;;9992927;29;20558;-76
2024/02/24 02:57:52;;;;;;;4.97;2.23;;;;;4.40;98863.00;;;;9952726;29;20321;-78
2024/02/24 03:02:53;;;;;;;5.83;2.87;;;;;4.40;98845.00;;;;9981374;29;20226;-77
2024/02/24 03:07:54;;;;;;;3.13;2.70;;;;;4.40;98861.00;;;;9971587;29;20233;-76
2024/02/24 03:12:55;;;;;;;5.00;3.17;;;;;4.40;98857.00;;;;9996793;29;20235;-77
2024/02/24 03:17:56;;;;;;;3.73;2.80;;;;;4.30;98864.00;;;;9980656;29;20253;-82
2024/02/24 03:22:58;;;;;;;4.67;3.10;;;;;4.30;98865.00;;;;9971707;29;20948;-82
2024/02/24 03:27:59;;;;;;;4.27;2.97;;;;;4.40;98862.00;;;;9993283;29;20307;-82
2024/02/24 03:33:01;;;;;;;3.83;3.00;;;;;4.40;98871.00;;;;9998596;29;20225;-82
2024/02/24 03:38:03;;;;;;;8.77;4.20;;;;;4.40;98877.00;;;;9989729;29;20252;-82
2024/02/24 03:43:04;;;;;;;3.53;3.07;;;;;4.40;98875.00;;;;9971956;29;20225;-82
2024/02/24 03:48:06;;;;;;;5.93;3.20;;;;;4.50;98883.00;;;;9973007;29;20261;-83
2024/02/24 03:53:07;;;;;;;5.87;3.37;;;;;4.50;98881.00;;;;9986122;29;20218;-82
2024/02/24 03:58:09;;;;;;;4.53;3.43;;;;;4.50;98876.00;;;;9955306;29;20250;-81
2024/02/24 04:03:11;;;;;;;6.60;3.33;;;;;4.50;98880.00;;;;9958088;29;20286;-82
2024/02/24 04:08:12;;;;;;;5.67;3.40;;;;;4.40;98883.00;;;;9972807;29;20290;-85
2024/02/24 04:13:13;;;;;;;3.47;3.17;;;;;4.40;98881.00;;;;9967870;29;20317;-82
2024/02/24 04:18:15;;;;;;;5.13;3.00;;;;;4.50;98888.00;;;;9992071;29;20681;-83
2024/02/24 04:23:16;;;;;;;4.53;3.47;;;;;4.50;98892.00;;;;9967470;29;20335;-83
2024/02/24 04:28:17;;;;;;;4.97;3.30;;;;;4.60;98896.00;;;;9947864;29;20221;-79
2024/02/24 04:33:22;;;;;;;5.60;3.57;;;;;4.60;98903.00;;;;9990521;29;20233;-79
2024/02/24 04:38:23;;;;;;;6.47;4.13;;;;;4.70;98912.00;;;;9997405;29;20221;-79
2024/02/24 04:43:24;;;;;;;6.90;3.53;;;;;4.70;98915.00;;;;9957630;29;20328;-79
2024/02/24 04:48:26;;;;;;;3.90;3.20;;;;;4.70;98914.00;;;;9985650;29;20800;-79
2024/02/24 04:53:27;;;;;;;5.40;3.60;;;;;4.70;98911.00;;;;9972253;29;20884;-80
2024/02/24 04:58:28;;;;;;;4.03;3.30;;;;;4.70;98921.00;;;;9994293;29;20230;-79
2024/02/24 05:03:30;;;;;;;4.23;3.20;;;;;4.70;98927.00;;;;9980068;29;20222;-82
2024/02/24 05:08:33;;;;;;;4.77;2.30;;;;;4.60;98949.00;;;;9960158;29;20229;-84
2024/02/24 05:13:35;;;;;;;2.13;1.93;;;;;4.30;98956.00;;;;9968464;29;20226;-83
2024/02/24 05:18:36;;;;;;;4.13;2.13;;;;;4.10;98956.00;;;;9967356;29;20230;-84
2024/02/24 05:23:37;;;;;;;3.03;2.20;;;;;3.90;98960.00;;;;9978939;29;20899;-83
2024/02/24 05:28:39;;;;;;;2.07;1.73;;;;;3.80;98954.00;;;;9958379;29;20260;-82
2024/02/24 05:33:40;;;;;;;2.03;1.83;;;;;3.80;98962.00;;;;9996123;29;20229;-82
2024/02/24 05:38:42;;;;;;;4.10;2.17;;;;;3.70;98960.00;;;;9963434;29;20225;-82
2024/02/24 05:43:43;;;;;;;3.13;2.37;;;;;3.70;98968.00;;;;9960119;29;20229;-81
2024/02/24 05:48:45;;;;;;;4.03;3.03;;;;;3.80;98979.00;;;;9983323;29;20236;-82
2024/02/24 05:53:47;;;;;;;4.57;3.13;;;;;3.90;98974.00;;;;9972361;29;20846;-82
2024/02/24 05:58:49;;;;;;;3.60;2.73;;;;;3.90;98978.00;;;;9968420;29;20272;-82
2024/02/24 06:03:51;;;;;;;5.13;3.50;;;;;4.00;98995.00;;;;9971482;29;20232;-82
2024/02/24 06:08:52;;;;;;;5.63;3.67;;;;;4.00;98993.00;;;;9943534;29;20226;-82
2024/02/24 06:13:53;;;;;;;7.07;3.50;;;;;4.00;99013.00;;;;9966201;29;20693;-82
2024/02/24 06:18:54;;;;;;;5.20;3.47;;;;;4.00;99012.00;;;;9989019;29;20312;-82
2024/02/24 06:23:56;;;;;;;4.43;3.87;;;;;4.10;99021.00;;;;9980805;29;20236;-81
2024/02/24 06:28:57;;;;;;;6.20;3.87;;;;;4.10;99034.00;;;;9990751;29;20237;-82
2024/02/24 06:33:58;;;;;;;4.17;3.67;;;;;4.10;99038.00;;;;9976083;29;20312;-82
2024/02/24 06:38:59;;;;;;;4.53;3.63;;;;;4.10;99048.00;;;;9975982;29;20332;-81
2024/02/24 06:44:01;;;;;;;4.67;3.40;;;;;4.10;99061.00;;;;9982459;29;20285;-81
2024/02/24 06:49:02;;;;;;;4.90;3.43;;;;;4.10;99059.00;;;;9987496;29;20593;-76
2024/02/24 06:54:04;;;;;;;3.50;3.20;;;;;4.10;99057.00;;;;9977058;29;20779;-77
2024/02/24 06:59:06;;;;;;;5.13;3.43;;;;;4.10;99064.00;;;;9962305;29;20280;-77
2024/02/24 07:04:07;;;;;;;4.57;2.90;;;;;4.20;99084.00;;;;9968568;29;20343;-77
2024/02/24 07:09:09;;;;;;;3.97;3.43;;;;;4.20;99097.00;;;;9976898;29;20864;-76
2024/02/24 07:14:10;;;;;;;5.07;3.50;;;;;4.20;99108.00;;;;9968440;29;20230;-78
2024/02/24 07:19:11;;;;;;;5.03;3.00;;;;;4.20;99109.00;;;;9974135;29;20263;-78
2024/02/24 07:24:13;;;;;;;7.40;2.63;;;;;4.30;99111.00;;;;9968616;29;20264;-76
2024/02/24 07:29:14;;;;;;;4.47;2.13;;;;;4.30;99125.00;;;;9979011;29;20275;-78
2024/02/24 07:34:15;;;;;;;3.60;2.77;;;;;4.30;99133.00;;;;9963027;29;20234;-77
2024/02/24 07:39:17;;;;;;;5.03;3.17;;;;;4.40;99145.00;;;;9981947;29;20684;-78
2024/02/24 07:44:18;;;;;;;5.63;3.00;;;;;4.40;99147.00;;;;9971901;29;20228;-80
2024/02/24 07:49:21;;;;;;;6.00;2.70;;;;;4.50;99158.00;;;;9961930;29;20240;-77
2024/02/24 07:54:22;;;;;;;3.17;2.17;;;;;4.70;99160.00;;;;9981642;29;20333;-77
2024/02/24 07:59:23;;;;;;;7.30;1.93;;;;;4.90;99170.00;;;;9950171;29;20307;-82
2024/02/24 08:04:24;;;;;;;4.70;1.73;;;;;4.90;99190.00;;;;9974880;29;20231;-82
2024/02/24 08:09:25;;;;;;;3.50;1.93;;;;;4.80;99198.00;;;;9997433;29;20312;-81
2024/02/24 08:14:27;;;;;;;3.17;1.73;;;;;4.80;99197.00;;;;9975603;29;20234;-81
2024/02/24 08:19:33;;;;;;;5.70;1.50;;;;;4.80;99211.00;;;;9980783;29;20233;-79
2024/02/24 08:24:34;;;;;;;3.10;1.27;;;;;4.80;99211.00;;;;9976809;29;20285;-81
2024/02/24 08:29:35;;;;;;;4.13;1.60;;;;;4.70;99213.00;;;;9957150;29;20233;-81
2024/02/24 08:34:36;;;;;;;6.17;2.10;;;;;4.90;99215.00;;;;9995378;29;20681;-82
2024/02/24 08:39:38;;;;;;;3.60;1.60;;;;;5.40;99227.00;;;;9994698;29;20229;-80
2024/02/24 08:44:39;;;;;;;3.33;1.80;;;;;5.60;99229.00;;;;9987472;29;20232;-82
2024/02/24 08:49:40;;;;;;;4.33;1.90;;;;;6.00;99232.00;;;;9971507;29;20229;-80
2024/02/24 08:54:41;;;;;;;5.13;1.60;;;;;6.30;99244.00;;;;9991315;29;20256;-80
2024/02/24 08:59:42;;;;;;;5.20;2.00;;;;;6.10;99251.00;;;;9984130;29;20252;-81
2024/02/24 09:04:43;;;;;;;6.10;1.73;;;;;5.90;99262.00;;;;9966996;29;20230;-81
2024/02/24 09:09:44;;;;;;;7.27;1.63;;;;;5.50;99266.00;;;;9954775;29;20225;-80
2024/02/24 09:14:45;;;;;;;5.83;1.70;;;;;5.50;99266.00;;;;9972100;29;20233;-79
2024/02/24 09:19:47;;;;;;;3.33;2.00;;;;;5.60;99278.00;;;;9984187;29;20806;-79
2024/02/24 09:24:48;;;;;;;5.33;3.83;;;;;5.40;99279.00;;;;9971063;29;20246;-80
2024/02/24 09:29:49;;;;;;;4.63;1.90;;;;;5.20;99276.00;;;;9973649;29;20320;-80
2024/02/24 09:34:50;;;;;;;3.83;2.00;;;;;5.20;99278.00;;;;9993522;29;20225;-80
2024/02/24 09:39:52;;;;;;;4.60;3.00;;;;;5.50;99277.00;;;;9979267;29;20217;-80
2024/02/24 09:45:02;;;;;;;5.00;2.03;;;;;5.90;99289.00;;;;9986142;29;20328;-80
2024/02/24 09:50:04;;;;;;;5.97;1.80;;;;;6.00;99278.00;;;;9955526;29;20225;-80
2024/02/24 09:55:06;;;;;;;5.30;1.90;;;;;6.00;99299.00;;;;9963258;29;20748;-80
2024/02/24 10:00:08;;;;;;;3.50;2.17;;;;;5.90;99305.00;;;;9990443;29;20225;-79
2024/02/24 10:05:16;;;;;;;3.83;2.37;;;;;5.80;99313.00;;;;9987214;29;20232;-79
2024/02/24 10:10:17;;;;;;;3.57;2.23;;;;;5.90;99307.00;;;;9952453;29;20876;-79
2024/02/24 10:15:19;;;;;;;4.10;1.77;;;;;6.00;99318.00;;;;9952133;29;20247;-81
2024/02/24 10:20:20;;;;;;;4.23;2.27;;;;;6.00;99325.00;;;;9979291;29;20244;-79
2024/02/24 10:25:22;;;;;;;2.33;1.47;;;;;5.60;99337.00;;;;9991529;29;20229;-80
2024/02/24 10:30:23;;;;;;;3.50;1.70;;;;;5.50;99350.00;;;;9954553;29;20309;-80
2024/02/24 10:35:28;;;;;;;2.00;1.10;;;;;6.00;99346.00;;;;9958764;29;20222;-80
2024/02/24 10:40:30;;;;;;;3.80;1.37;;;;;6.00;99353.00;;;;9992488;29;20749;-80
2024/02/24 10:45:32;;;;;;;4.83;1.37;;;;;5.90;99351.00;;;;9961943;29;20232;-80
2024/02/24 10:50:34;;;;;;;4.03;1.90;;;;;5.70;99360.00;;;;9951127;29;20373;-79
2024/02/24 10:55:37;;;;;;;5.07;2.00;;;;;5.90;99374.00;;;;9969439;29;20233;-79
2024/02/24 11:00:43;;;;;;;5.27;2.00;;;;;6.20;99379.00;;;;9952402;29;20242;-79
2024/02/24 11:05:50;;;;;;;3.07;1.43;;;;;6.70;99377.00;;;;9946099;29;20593;-80
2024/02/24 11:10:52;;;;;;;4.83;1.70;;;;;7.00;99378.00;;;;9970393;29;20237;-80
2024/02/24 11:15:57;;;;;;;2.83;1.77;;;;;6.60;99380.00;;;;9986721;29;20649;-80
2024/02/24 11:20:58;;;;;;;3.60;2.33;;;;;6.50;99391.00;;;;9994450;29;20339;-81
2024/02/24 11:26:20;;;;;;;2.87;2.03;;;;;6.40;99394.00;;;;9968150;29;20233;-77
2024/02/24 11:31:35;;;;;;;3.80;2.37;;;;;7.00;99384.00;;;;9968413;29;20230;-78
2024/02/24 11:36:38;;;;;;;7.00;1.40;;;;;7.10;99379.00;;;;9952995;29;20226;-76
2024/02/24 11:41:40;;;;;;;4.10;1.67;;;;;7.50;99398.00;;;;9995956;29;22172;-77
2024/02/24 11:46:45;;;;;;;2.07;1.43;;;;;8.10;99384.00;;;;9983578;29;20229;-76
2024/02/24 11:51:47;;;;;;;4.10;2.03;;;;;9.50;99381.00;;;;9977451;29;20217;-77
2024/02/24 11:56:49;;;;;;;2.70;1.70;;;;;9.40;99373.00;;;;9972143;29;20332;-79
2024/02/24 12:01:50;;;;;;;3.70;1.53;;;;;9.30;99378.00;;;;9993624;29;20232;-79
2024/02/24 12:06:51;;;;;;;4.20;1.27;;;;;9.90;99360.00;;;;9979242;29;20233;-79
2024/02/24 12:11:56;;;;;;;2.73;1.20;;;;;9.90;99363.00;;;;9989443;29;20289;-79
2024/02/24 12:16:58;;;;;;;3.90;1.53;;;;;9.80;99357.00;;;;9993310;29;20233;-78
2024/02/24 12:22:00;;;;;;;4.30;1.57;;;;;10.50;99359.00;;;;9981886;29;20237;-79
2024/02/24 12:27:02;;;;;;;2.40;1.53;;;;;9.90;99376.00;;;;9996302;29;20229;-79
2024/02/24 12:32:04;;;;;;;3.30;1.53;;;;;10.10;99372.00;;;;9967337;29;20793;-79
2024/02/24 12:37:06;;;;;;;3.67;1.93;;;;;9.80;99371.00;;;;9975712;29;20953;-77
2024/02/24 12:42:07;;;;;;;4.40;1.70;;;;;9.60;99373.00;;;;9981234;29;20244;-78
2024/02/24 12:47:08;;;;;;;3.60;1.60;;;;;8.90;99390.00;;;;9995623;29;20237;-79
2024/02/24 12:52:09;;;;;;;4.70;2.03;;;;;8.40;99392.00;;;;9962958;29;20372;-78
2024/02/24 12:57:10;;;;;;;4.63;2.13;;;;;8.30;99402.00;;;;9990891;29;20304;-77
2024/02/24 13:02:11;;;;;;;4.57;2.17;;;;;9.30;99383.00;;;;9959278;29;21020;-79
2024/02/24 13:07:13;;;;;;;2.77;1.63;;;;;9.40;99388.00;;;;9998632;29;20229;-77
2024/02/24 13:12:14;;;;;;;2.90;1.60;;;;;9.70;99382.00;;;;9961986;29;20260;-80
2024/02/24 13:17:16;;;;;;;4.63;1.50;;;;;10.50;99379.00;;;;9978546;29;20229;-78
2024/02/24 13:22:17;;;;;;;3.97;1.30;;;;;10.90;99393.00;;;;10000030;29;20236;-80
2024/02/24 13:27:18;;;;;;;6.13;1.70;;;;;9.30;99399.00;;;;9972229;29;20225;-79
2024/02/24 13:32:20;;;;;;;5.40;1.73;;;;;9.80;99404.00;;;;9950893;29;20260;-79
2024/02/24 13:37:21;;;;;;;5.67;1.60;;;;;9.70;99408.00;;;;9984363;29;20276;-78
2024/02/24 13:42:22;;;;;;;2.73;1.73;;;;;9.00;99416.00;;;;9979095;29;20229;-79
2024/02/24 13:47:23;;;;;;;3.37;1.40;;;;;8.90;99419.00;;;;9974887;29;20303;-78
2024/02/24 13:52:25;;;;;;;5.00;1.57;;;;;9.10;99422.00;;;;9999071;29;21005;-79
2024/02/24 13:57:26;;;;;;;3.97;1.50;;;;;9.60;99416.00;;;;9991783;29;20677;-79
2024/02/24 14:02:28;;;;;;;3.97;1.90;;;;;9.10;99424.00;;;;9965799;29;20261;-78
2024/02/24 14:07:30;;;;;;;2.47;1.60;;;;;9.10;99424.00;;;;9957528;29;20229;-78
2024/02/24 14:12:31;;;;;;;3.03;1.60;;;;;9.60;99412.00;;;;9968619;29;20312;-79
2024/02/24 14:17:32;;;;;;;4.10;1.83;;;;;11.50;99338.00;;;;9980730;29;20217;-79
2024/02/24 14:22:34;;;;;;;3.23;1.40;;;;;10.60;99389.00;;;;9954465;29;20231;-79
2024/02/24 14:27:35;;;;;;;3.43;1.70;;;;;11.40;99387.00;;;;10000371;29;20225;-79
2024/02/24 14:32:37;;;;;;;3.77;1.23;;;;;13.10;99352.00;;;;9974583;29;20237;-78
2024/02/24 14:37:39;;;;;;;2.33;1.30;;;;;12.10;99388.00;;;;9960114;29;20269;-80
2024/02/24 14:42:40;;;;;;;3.63;1.47;;;;;11.20;99397.00;;;;9966293;29;20586;-79
2024/02/24 14:47:41;;;;;;;3.10;1.30;;;;;10.20;99429.00;;;;9975997;29;20731;-77
2024/02/24 14:52:43;;;;;;;4.70;1.27;;;;;9.30;99425.00;;;;9979710;29;20940;-81
2024/02/24 14:57:44;;;;;;;4.27;1.40;;;;;9.70;99426.00;;;;10022635;29;20227;-78
2024/02/24 15:02:46;;;;;;;5.60;1.63;;;;;9.00;99441.00;;;;9983178;29;20313;-77
2024/02/24 15:08:05;;;;;;;3.73;2.10;;;;;8.50;99439.00;;;;9999168;29;20244;-78
2024/02/24 15:13:06;;;;;;;4.07;1.43;;;;;8.30;99436.00;;;;9986767;29;20737;-77
2024/02/24 15:18:07;;;;;;;3.53;1.57;;;;;8.10;99442.00;;;;9957675;29;20229;-77
2024/02/24 15:23:09;;;;;;;3.17;1.10;;;;;8.00;99443.00;;;;9963963;29;20234;-77
2024/02/24 15:28:10;;;;;;;2.77;1.07;;;;;7.90;99442.00;;;;10004180;29;20240;-78
2024/02/24 15:33:11;;;;;;;4.83;1.50;;;;;7.80;99460.00;;;;9987030;29;20266;-78
2024/02/24 15:38:12;;;;;;;2.83;1.00;;;;;7.70;99456.00;;;;9976364;29;20229;-77
2024/02/24 15:43:14;;;;;;;3.40;1.13;;;;;7.80;99466.00;;;;9966879;29;20234;-78
2024/02/24 15:48:15;;;;;;;2.87;1.30;;;;;7.70;99461.00;;;;9959242;29;20230;-78
2024/02/24 15:53:16;;;;;;;3.43;1.10;;;;;7.80;99453.00;;;;9990109;29;20319;-77
2024/02/24 15:58:17;;;;;;;4.87;1.50;;;;;7.70;99460.00;;;;9965872;29;20229;-77
2024/02/24 16:03:18;;;;;;;2.40;1.10;;;;;7.60;99446.00;;;;9954201;29;20257;-77
2024/02/24 16:08:19;;;;;;;4.13;1.87;;;;;7.40;99457.00;;;;9985704;29;20230;-78
2024/02/24 16:13:21;;;;;;;3.07;1.70;;;;;7.30;99454.00;;;;9993630;29;20229;-79
2024/02/24 16:18:22;;;;;;;4.40;1.47;;;;;7.20;99456.00;;;;9968817;29;20237;-79
2024/02/24 16:23:24;;;;;;;3.77;1.47;;;;;7.10;99461.00;;;;9967565;29;20229;-78
2024/02/24 16:28:25;;;;;;;3.60;1.70;;;;;7.10;99474.00;;;;9985290;29;20222;-79
2024/02/24 16:33:26;;;;;;;3.80;1.77;;;;;7.00;99467.00;;;;9970898;29;20225;-79
2024/02/24 16:38:27;;;;;;;4.97;1.73;;;;;6.90;99473.00;;;;9993709;29;20581;-79
2024/02/24 16:43:28;;;;;;;4.27;1.93;;;;;6.90;99474.00;;;;9992097;29;20704;-80
2024/02/24 16:48:30;;;;;;;4.23;1.50;;;;;6.80;99471.00;;;;9982134;29;20821;-78
2024/02/24 16:53:31;;;;;;;6.63;1.77;;;;;6.70;99472.00;;;;9981090;29;20225;-79
2024/02/24 16:58:33;;;;;;;4.57;1.50;;;;;6.70;99481.00;;;;9966907;29;20317;-79
2024/02/24 17:03:34;;;;;;;4.07;1.87;;;;;6.70;99472.00;;;;9976886;29;20214;-79
2024/02/24 17:08:35;;;;;;;4.50;1.40;;;;;6.60;99479.00;;;;10019799;29;20227;-80
2024/02/24 17:13:36;;;;;;;3.20;1.30;;;;;6.60;99484.00;;;;9975217;29;20232;-78
2024/02/24 17:18:40;;;;;;;3.17;1.63;;;;;6.60;99484.00;;;;9958204;29;20235;-79
2024/02/24 17:23:42;;;;;;;4.17;1.47;;;;;6.50;99483.00;;;;10000573;29;20232;-79
2024/02/24 17:28:43;;;;;;;5.33;2.27;;;;;6.40;99492.00;;;;9961830;29;20237;-79
2024/02/24 17:33:46;;;;;;;6.90;3.07;;;;;6.30;99494.00;;;;9983472;29;20837;-80
2024/02/24 17:38:47;;;;;;;8.87;2.60;;;;;6.30;99485.00;;;;9979960;29;20820;-78
2024/02/24 17:43:48;;;;;;;6.27;2.40;;;;;6.30;99485.00;;;;9975097;29;20229;-77
2024/02/24 17:48:49;;;;;;;3.47;2.00;;;;;6.40;99495.00;;;;9974358;29;20855;-78
2024/02/24 17:53:50;;;;;;;4.07;2.03;;;;;6.40;99495.00;;;;9991088;29;20233;-78
2024/02/24 17:58:51;;;;;;;2.47;1.23;;;;;6.40;99497.00;;;;9966583;29;20570;-78
2024/02/24 18:03:53;;;;;;;2.87;1.80;;;;;6.40;99499.00;;;;9981593;29;20244;-79
2024/02/24 18:08:54;;;;;;;4.27;1.53;;;;;6.30;99502.00;;;;9988249;29;20234;-79
2024/02/24 18:13:55;;;;;;;6.20;1.80;;;;;6.30;99491.00;;;;9994065;29;20233;-78
2024/02/24 18:18:57;;;;;;;3.80;1.80;;;;;6.20;99489.00;;;;9956206;29;20238;-79
2024/02/24 18:23:58;;;;;;;3.13;1.87;;;;;6.10;99494.00;;;;9989759;29;20233;-78
2024/02/24 18:29:00;;;;;;;4.70;2.00;;;;;6.00;99494.00;;;;9979182;29;20763;-78
2024/02/24 18:34:02;;;;;;;3.30;1.50;;;;;5.90;99500.00;;;;10002716;29;20415;-78
2024/02/24 18:39:04;;;;;;;5.57;1.67;;;;;5.90;99503.00;;;;10000603;29;20229;-79
2024/02/24 18:44:05;;;;;;;5.03;1.80;;;;;5.90;99512.00;;;;9980981;29;20225;-78
2024/02/24 18:49:06;;;;;;;2.43;1.60;;;;;5.90;99500.00;;;;10013128;29;20281;-78
2024/02/24 18:54:07;;;;;;;6.53;1.70;;;;;5.90;99500.00;;;;9970384;29;20238;-78
2024/02/24 18:59:08;;;;;;;9.40;1.90;;;;;5.90;99499.00;;;;9985667;29;20799;-78
2024/02/24 19:04:11;;;;;;;2.60;1.50;;;;;5.80;99504.00;;;;9984343;29;20260;-78
2024/02/24 19:09:12;;;;;;;4.77;1.93;;;;;5.80;99506.00;;;;9964092;29;20225;-78
2024/02/24 19:14:13;;;;;;;4.47;1.30;;;;;5.70;99504.00;;;;9964193;29;20259;-78
2024/02/24 19:19:15;;;;;;;4.70;2.10;;;;;5.80;99497.00;;;;9982176;29;20221;-79
2024/02/24 19:24:16;;;;;;;3.33;1.53;;;;;5.90;99494.00;;;;9966845;29;20237;-79
2024/02/24 19:29:18;;;;;;;3.43;1.70;;;;;6.00;99500.00;;;;9987927;29;20225;-78
2024/02/24 19:34:20;;;;;;;4.60;1.90;;;;;6.00;99487.00;;;;9997924;29;20236;-78
2024/02/24 19:39:21;;;;;;;3.23;1.60;;;;;6.00;99482.00;;;;9970139;29;20222;-77
2024/02/24 19:44:22;;;;;;;3.97;1.33;;;;;6.00;99493.00;;;;10002155;29;20388;-78
2024/02/24 19:49:24;;;;;;;3.63;1.50;;;;;5.90;99486.00;;;;10003850;29;20308;-78
2024/02/24 19:54:25;;;;;;;2.57;1.50;;;;;6.00;99484.00;;;;9994416;29;20688;-78
2024/02/24 19:59:26;;;;;;;2.53;1.67;;;;;6.00;99485.00;;;;10009104;29;20237;-77
2024/02/24 20:04:29;;;;;;;2.13;1.47;;;;;6.00;99475.00;;;;9973448;29;20229;-78
2024/02/24 20:09:37;;;;;;;2.00;1.07;;;;;6.10;99473.00;;;;9989313;29;20871;-79
2024/02/24 20:14:38;;;;;;;3.80;1.03;;;;;6.10;99473.00;;;;9979028;29;20237;-80
2024/02/24 20:19:43;;;;;;;3.17;1.10;;;;;6.20;99481.00;;;;9951417;29;20236;-79
2024/02/24 20:24:45;;;;;;;2.53;1.00;;;;;6.30;99471.00;;;;9962549;29;20317;-78
2024/02/24 20:29:46;;;;;;;1.97;1.03;;;;;6.30;99476.00;;;;9955871;29;20246;-80
2024/02/24 20:34:47;;;;;;;3.03;1.30;;;;;6.30;99484.00;;;;9989983;29;20261;-79
2024/02/24 20:39:48;;;;;;;2.83;1.00;;;;;6.20;99472.00;;;;9983758;29;20229;-79
2024/02/24 20:44:49;;;;;;;4.00;1.00;;;;;6.00;99472.00;;;;9965735;29;20230;-79
2024/02/24 20:49:51;;;;;;;2.57;1.20;;;;;6.00;99475.00;;;;9998670;29;20672;-79
2024/02/24 20:54:52;;;;;;;1.03;0.80;;;;;5.90;99481.00;;;;9976060;29;20332;-80
2024/02/24 20:59:53;;;;;;;1.20;0.80;;;;;5.90;99484.00;;;;9981031;29;20230;-82
2024/02/24 21:04:54;;;;;;;1.70;0.80;;;;;5.90;99491.00;;;;9989109;29;20393;-82
2024/02/24 21:09:56;;;;;;;1.90;0.70;;;;;5.80;99487.00;;;;9968837;29;20727;-82
2024/02/24 21:14:57;;;;;;;1.27;0.80;;;;;5.90;99487.00;;;;9981854;29;20251;-81
2024/02/24 21:20:03;;;;;;;4.53;1.00;;;;;5.90;99478.00;;;;9994337;29;20265;-82
2024/02/24 21:25:09;;;;;;;0.93;0.77;;;;;5.80;99492.00;;;;9966988;29;20316;-82
2024/02/24 21:30:11;;;;;;;0.93;0.60;;;;;5.70;99477.00;;;;9977444;29;20233;-83
2024/02/24 21:35:15;;;;;;;2.30;0.70;;;;;5.70;99467.00;;;;9989228;29;20244;-81
2024/02/24 21:40:16;;;;;;;1.57;0.57;;;;;5.80;99470.00;;;;9988970;29;20224;-81
2024/02/24 21:45:17;;;;;;;0.90;0.50;;;;;5.80;99469.00;;;;9971359;29;20258;-83
2024/02/24 21:50:18;;;;;;;1.23;0.80;;;;;5.80;99456.00;;;;9986855;29;20770;-82
2024/02/24 21:55:20;;;;;;;1.60;0.77;;;;;5.80;99456.00;;;;9973126;29;20629;-82
2024/02/24 22:00:21;;;;;;;1.40;0.80;;;;;5.80;99454.00;;;;9981207;29;20225;-82
2024/02/24 22:05:27;;;;;;;2.43;0.50;;;;;5.80;99445.00;;;;9954716;29;20269;-79
2024/02/24 22:10:29;;;;;;;1.10;0.53;;;;;5.80;99444.00;;;;9953875;29;20225;-81
2024/02/24 22:15:31;;;;;;;1.23;0.67;;;;;5.80;99440.00;;;;9958248;29;20229;-79
2024/02/24 22:20:32;;;;;;;1.63;0.50;;;;;5.80;99443.00;;;;9972200;29;20233;-81
2024/02/24 22:25:33;;;;;;;1.23;0.60;;;;;5.70;99446.00;;;;9973279;29;21192;-80
2024/02/24 22:30:34;;;;;;;0.90;0.80;;;;;5.70;99445.00;;;;9982941;29;20236;-78
2024/02/24 22:35:37;;;;;;;0.63;0.60;;;;;5.70;99453.00;;;;9971860;29;20229;-79
2024/02/24 22:40:38;;;;;;;0.40;0.40;;;;;5.60;99453.00;;;;9979532;29;20221;-79
2024/02/24 22:45:40;;;;;;;0.60;0.60;;;;;5.60;99441.00;;;;9994002;29;20229;-78
2024/02/24 22:50:41;;;;;;;1.13;0.80;;;;;5.50;99442.00;;;;9968113;29;20229;-79
2024/02/24 22:55:42;;;;;;;2.20;0.60;;;;;5.40;99446.00;;;;9978533;29;20228;-79
2024/02/24 23:00:44;;;;;;;2.60;0.87;;;;;5.30;99441.00;;;;9992030;29;20221;-78
2024/02/24 23:05:45;;;;;;;2.07;0.80;;;;;5.40;99443.00;;;;9988552;29;20414;-79
2024/02/24 23:10:46;;;;;;;2.17;1.00;;;;;5.40;99438.00;;;;9986583;29;20320;-78
2024/02/24 23:15:48;;;;;;;1.20;1.10;;;;;5.40;99427.00;;;;9964606;29;20225;-77
2024/02/24 23:20:49;;;;;;;1.13;1.03;;;;;5.30;99429.00;;;;9961450;29;20260;-78
2024/02/24 23:25:51;;;;;;;1.43;0.80;;;;;5.40;99430.00;;;;9994537;29;20256;-78
2024/02/24 23:30:52;;;;;;;0.97;0.90;;;;;5.40;99430.00;;;;10002835;29;20267;-77
2024/02/24 23:35:53;;;;;;;2.10;0.93;;;;;5.40;99431.00;;;;9985553;29;21016;-79
2024/02/24 23:40:54;;;;;;;2.27;1.27;;;;;5.40;99425.00;;;;9952482;29;20242;-79
2024/02/24 23:45:55;;;;;;;0.83;0.73;;;;;5.50;99421.00;;;;9966351;29;20238;-78
2024/02/24 23:50:59;;;;;;;1.23;1.13;;;;;5.50;99417.00;;;;9964596;29;20230;-77
2024/02/24 23:56:01;;;;;;;0.80;0.80;;;;;5.40;99414.00;;;;9950350;29;20653;-77
